Time;durP1;ratioP1;P1;durP2;ratioP2;P2;SDS_P1;SDS_P2;PMS_P1;PMS_P2;Temp;Humidity;BMP_temperature;BMP_pressure;BME280_temperature;BME280_humidity;BME280_pressure;Samples;Min_cycle;Max_cycle;Signal;HPM_P1;HPM_P2
2023/07/16 00:02:22;;;;;;;9.77;6.30;;;22.60;67.40;;;;;;4956683;29;20748;-82
2023/07/16 00:04:49;;;;;;;8.30;6.50;;;22.60;67.50;;;;;;4944844;29;20490;-80
2023/07/16 00:07:21;;;;;;;7.13;6.43;;;22.50;67.70;;;;;;4959755;28;20451;-83
2023/07/16 00:09:50;;;;;;;6.57;6.03;;;22.50;68.00;;;;;;4953147;28;20516;-84
2023/07/16 00:12:17;;;;;;;6.03;5.43;;;22.50;68.00;;;;;;4963152;29;20426;-82
2023/07/16 00:14:44;;;;;;;8.03;7.23;;;22.50;68.20;;;;;;4961758;28;20816;-82
2023/07/16 00:17:17;;;;;;;7.13;6.53;;;22.40;68.60;;;;;;4937923;29;20473;-85
2023/07/16 00:20:02;;;;;;;6.40;5.90;;;22.30;68.90;;;;;;4966818;28;20416;-82
2023/07/16 00:22:33;;;;;;;7.23;6.60;;;22.30;69.40;;;;;;4934558;29;20436;-87
2023/07/16 00:25:10;;;;;;;7.97;7.23;;;22.20;69.30;;;;;;4944790;29;20469;-89
2023/07/16 00:27:51;;;;;;;7.77;6.37;;;22.20;69.50;;;;;;4948966;28;20591;-80
2023/07/16 00:30:29;;;;;;;21.47;6.90;;;22.20;69.90;;;;;;4951491;28;20471;-88
2023/07/16 00:32:58;;;;;;;11.77;6.73;;;22.20;70.30;;;;;;4945474;29;20540;-79
2023/07/16 00:35:27;;;;;;;9.70;8.70;;;22.00;70.40;;;;;;4964011;29;20439;-81
2023/07/16 00:37:55;;;;;;;7.13;6.53;;;22.10;70.50;;;;;;4958359;29;20508;-82
2023/07/16 00:40:27;;;;;;;7.17;6.50;;;22.10;70.70;;;;;;4942148;29;20420;-88
2023/07/16 00:42:55;;;;;;;7.53;6.77;;;22.00;70.70;;;;;;4942069;29;20447;-88
2023/07/16 00:45:37;;;;;;;7.20;6.50;;;22.00;71.00;;;;;;4938953;29;20408;-80
2023/07/16 00:48:08;;;;;;;7.30;6.63;;;21.90;71.30;;;;;;4964118;29;20507;-85
2023/07/16 00:50:44;;;;;;;10.40;6.73;;;22.00;71.30;;;;;;4930987;29;20466;-88
2023/07/16 00:53:21;;;;;;;7.23;6.53;;;21.90;71.30;;;;;;4965873;28;21015;-90
2023/07/16 00:55:48;;;;;;;5.83;5.43;;;21.90;71.50;;;;;;4960130;28;20427;-82
2023/07/16 00:58:16;;;;;;;9.20;6.70;;;21.90;71.80;;;;;;4936867;29;20476;-77
2023/07/16 01:00:43;;;;;;;6.50;6.00;;;21.90;71.90;;;;;;4971209;28;21038;-80
2023/07/16 01:03:18;;;;;;;6.93;6.33;;;22.00;72.20;;;;;;4945100;29;20531;-82
2023/07/16 01:06:18;;;;;;;7.17;6.43;;;21.80;71.70;;;;;;4941590;29;20416;-83
2023/07/16 01:09:19;;;;;;;6.53;6.03;;;21.90;72.00;;;;;;4941326;29;20647;-90
2023/07/16 01:11:48;;;;;;;7.00;6.30;;;21.80;71.90;;;;;;4925133;28;20468;-80
2023/07/16 01:14:30;;;;;;;7.33;6.63;;;21.90;72.10;;;;;;4958180;28;20431;-79
2023/07/16 01:16:58;;;;;;;7.80;7.00;;;21.90;72.60;;;;;;4965614;28;20489;-85
2023/07/16 01:19:35;;;;;;;6.87;6.17;;;21.60;72.50;;;;;;4947112;28;20455;-80
2023/07/16 01:22:22;;;;;;;7.37;6.70;;;21.60;72.70;;;;;;4957221;29;20646;-80
2023/07/16 01:25:30;;;;;;;7.20;6.50;;;21.70;73.00;;;;;;4962463;28;20397;-82
2023/07/16 01:28:28;;;;;;;7.13;6.53;;;21.70;72.80;;;;;;4960068;28;20474;-85
2023/07/16 01:30:59;;;;;;;6.40;5.90;;;21.60;73.00;;;;;;4941290;29;20483;-80
2023/07/16 01:33:27;;;;;;;7.50;6.90;;;21.60;73.20;;;;;;4948356;28;20461;-88
2023/07/16 01:36:16;;;;;;;7.30;6.70;;;21.60;73.50;;;;;;4956086;29;20448;-83
2023/07/16 01:38:47;;;;;;;7.77;7.17;;;21.50;73.70;;;;;;4961967;29;20412;-83
2023/07/16 01:41:14;;;;;;;7.07;6.47;;;21.40;74.10;;;;;;4940812;28;20427;-80
2023/07/16 01:43:53;;;;;;;7.37;6.77;;;21.40;74.10;;;;;;4951707;28;20445;-89
2023/07/16 01:46:34;;;;;;;7.90;6.30;;;21.40;74.40;;;;;;4948795;28;20421;-83
2023/07/16 01:49:15;;;;;;;6.47;5.90;;;21.40;74.70;;;;;;4959280;28;20411;-87
2023/07/16 01:51:50;;;;;;;6.33;5.83;;;21.30;74.50;;;;;;4934284;29;20732;-91
2023/07/16 01:54:21;;;;;;;9.13;5.47;;;21.40;74.60;;;;;;4937432;29;20461;-86
2023/07/16 01:56:48;;;;;;;7.60;6.90;;;21.20;74.50;;;;;;4952303;29;20428;-80
2023/07/16 01:59:19;;;;;;;7.93;7.23;;;21.30;75.00;;;;;;4957101;29;20404;-86
2023/07/16 02:01:54;;;;;;;7.30;6.60;;;21.20;75.00;;;;;;4964465;23;20479;-83
2023/07/16 02:04:23;;;;;;;7.93;6.87;;;21.20;75.20;;;;;;4949637;28;20507;-82
2023/07/16 02:07:11;;;;;;;;;;;;;;;;;;;;;
2023/07/16 02:09:45;;;;;;;7.53;6.67;;;21.20;76.30;;;;;;4957194;28;20512;-88
2023/07/16 02:12:14;;;;;;;7.67;7.03;;;21.10;75.70;;;;;;4946080;29;20435;-81
2023/07/16 02:14:46;;;;;;;6.27;5.77;;;21.10;75.80;;;;;;4959488;29;20453;-87
2023/07/16 02:17:37;;;;;;;6.67;6.17;;;21.10;76.00;;;;;;4942647;29;20409;-84
2023/07/16 02:20:07;;;;;;;7.13;6.63;;;21.10;76.20;;;;;;4963459;28;20784;-85
2023/07/16 02:22:36;;;;;;;9.03;6.07;;;21.00;76.00;;;;;;4955284;28;20484;-82
2023/07/16 02:25:05;;;;;;;6.47;5.87;;;21.20;76.10;;;;;;4956003;29;20724;-80
2023/07/16 02:27:33;;;;;;;12.10;7.03;;;21.10;76.20;;;;;;4947523;29;20743;-85
2023/07/16 02:30:14;;;;;;;7.70;7.00;;;21.10;76.20;;;;;;4930835;29;20448;-90
2023/07/16 02:32:59;;;;;;;8.17;7.37;;;21.00;76.00;;;;;;4954486;29;20787;-84
2023/07/16 02:35:28;;;;;;;6.93;6.33;;;21.00;76.40;;;;;;4940838;29;20846;-84
2023/07/16 02:38:00;;;;;;;7.00;6.30;;;21.00;76.30;;;;;;4972886;28;20420;-88
2023/07/16 02:40:27;;;;;;;9.63;6.70;;;21.00;77.20;;;;;;4959632;28;20487;-84
2023/07/16 02:43:30;;;;;;;7.00;5.77;;;21.00;76.70;;;;;;4968602;28;20453;-85
2023/07/16 02:46:23;;;;;;;6.93;6.33;;;20.80;76.70;;;;;;4966092;29;20479;-87
2023/07/16 02:48:51;;;;;;;6.87;6.30;;;21.00;76.70;;;;;;4952403;29;20400;-85
2023/07/16 02:51:23;;;;;;;6.97;6.47;;;20.90;77.00;;;;;;4968271;28;20459;-84
2023/07/16 02:53:50;;;;;;;7.40;6.63;;;20.90;77.00;;;;;;5169542;23;20518;-83
2023/07/16 02:56:21;;;;;;;7.43;6.73;;;20.90;76.90;;;;;;4930341;29;20801;-86
2023/07/16 02:58:50;;;;;;;6.90;6.40;;;21.10;76.60;;;;;;4943775;29;20466;-78
2023/07/16 03:01:17;;;;;;;7.10;6.60;;;21.10;76.60;;;;;;4951903;29;20492;-82
2023/07/16 03:03:44;;;;;;;6.70;6.10;;;21.00;76.30;;;;;;4943163;29;20807;-83
2023/07/16 03:06:11;;;;;;;7.27;6.67;;;21.20;76.00;;;;;;4944243;29;20493;-81
2023/07/16 03:08:40;;;;;;;6.90;6.40;;;21.20;75.90;;;;;;4953313;28;20421;-79
2023/07/16 03:11:07;;;;;;;6.07;5.67;;;21.30;75.80;;;;;;4937626;29;20498;-88
2023/07/16 03:13:42;;;;;;;7.17;6.43;;;21.30;75.70;;;;;;4945036;29;20486;-88
2023/07/16 03:16:09;;;;;;;7.03;5.80;;;21.40;75.70;;;;;;4949681;29;20456;-81
2023/07/16 03:18:36;;;;;;;8.37;7.50;;;21.30;75.90;;;;;;4944538;29;20461;-83
2023/07/16 03:21:05;;;;;;;10.03;6.93;;;21.30;75.70;;;;;;4923655;29;20489;-79
2023/07/16 03:23:33;;;;;;;7.07;6.47;;;21.40;75.70;;;;;;4944659;29;20438;-83
2023/07/16 03:26:02;;;;;;;9.73;7.67;;;21.40;75.70;;;;;;4939849;29;20454;-86
2023/07/16 03:28:31;;;;;;;6.83;6.33;;;21.40;75.60;;;;;;4949787;28;20446;-87
2023/07/16 03:31:14;;;;;;;7.80;6.50;;;21.40;75.50;;;;;;4944887;28;20451;-86
2023/07/16 03:33:47;;;;;;;6.10;5.53;;;21.50;75.60;;;;;;5330588;23;20529;-82
2023/07/16 03:36:14;;;;;;;7.63;7.03;;;21.80;75.50;;;;;;4983039;28;20482;-86
2023/07/16 03:38:43;;;;;;;6.40;5.87;;;22.00;74.70;;;;;;4975758;28;20427;-81
2023/07/16 03:41:13;;;;;;;7.13;6.50;;;22.50;72.30;;;;;;4972830;28;20756;-84
2023/07/16 03:44:01;;;;;;;7.07;6.33;;;23.00;70.80;;;;;;4978797;28;20743;-85
2023/07/16 03:46:53;;;;;;;9.80;6.40;;;23.40;69.70;;;;;;4986517;28;20427;-89
2023/07/16 03:49:26;;;;;;;5.73;5.23;;;23.60;69.00;;;;;;4963366;28;20527;-82
2023/07/16 03:52:04;;;;;;;6.50;5.93;;;23.90;68.10;;;;;;4984035;28;20469;-89
2023/07/16 03:54:36;;;;;;;7.47;6.90;;;23.80;68.10;;;;;;5002643;28;20464;-89
2023/07/16 03:57:30;;;;;;;7.67;5.60;;;23.90;68.70;;;;;;4972850;28;20869;-85
2023/07/16 04:03:40;;;;;;;6.57;6.10;;;23.50;69.70;;;;;;4967318;28;20392;-83
2023/07/16 04:06:15;;;;;;;7.20;6.63;;;23.60;69.40;;;;;;4981872;28;20440;-85
2023/07/16 04:08:50;;;;;;;7.03;6.43;;;23.80;68.80;;;;;;4982744;28;20456;-88
2023/07/16 04:11:17;;;;;;;6.57;5.97;;;24.10;68.00;;;;;;4976206;28;20479;-85
2023/07/16 04:13:44;;;;;;;8.40;5.53;;;24.20;67.80;;;;;;4976035;28;20632;-86
2023/07/16 04:16:12;;;;;;;7.30;6.70;;;24.30;67.20;;;;;;4982288;28;20450;-82
2023/07/16 04:18:40;;;;;;;9.10;6.30;;;24.30;66.70;;;;;;4975694;28;20446;-86
2023/07/16 04:21:07;;;;;;;6.97;6.03;;;24.40;66.50;;;;;;4991378;28;20464;-80
2023/07/16 04:23:35;;;;;;;7.57;6.10;;;24.40;66.80;;;;;;5003725;28;20450;-78
2023/07/16 04:26:02;;;;;;;14.50;6.30;;;24.40;66.50;;;;;;5006867;28;20449;-81
2023/07/16 04:28:29;;;;;;;6.80;6.20;;;24.40;66.20;;;;;;4995117;28;20503;-89
2023/07/16 04:30:56;;;;;;;7.13;6.50;;;24.40;65.70;;;;;;4983662;28;20486;-80
2023/07/16 04:33:24;;;;;;;7.97;6.00;;;24.50;65.30;;;;;;5001193;28;20477;-87
2023/07/16 04:35:52;;;;;;;6.30;5.80;;;24.40;65.00;;;;;;5007219;28;20645;-81
2023/07/16 04:38:21;;;;;;;7.07;6.50;;;24.50;65.00;;;;;;5011465;28;21044;-82
2023/07/16 04:40:49;;;;;;;6.80;6.10;;;24.60;64.50;;;;;;4980968;28;20452;-83
2023/07/16 04:43:19;;;;;;;6.60;6.10;;;24.40;64.40;;;;;;5004804;28;20458;-81
2023/07/16 04:45:47;;;;;;;5.70;5.20;;;24.60;64.20;;;;;;5007460;28;20426;-81
2023/07/16 04:48:14;;;;;;;8.30;5.53;;;24.60;64.20;;;;;;4983963;28;20435;-83
2023/07/16 04:50:41;;;;;;;7.63;6.00;;;24.90;64.20;;;;;;4998513;28;20454;-81
2023/07/16 04:53:08;;;;;;;10.17;6.10;;;24.80;63.20;;;;;;5010983;28;20782;-82
2023/07/16 04:58:24;;;;;;;7.20;5.90;;;25.00;63.40;;;;;;4993173;28;20501;-79
2023/07/16 05:00:51;;;;;;;9.03;6.37;;;25.10;63.20;;;;;;4993594;28;20447;-82
2023/07/16 05:03:33;;;;;;;9.60;5.93;;;25.20;62.70;;;;;;4982251;28;20478;-85
2023/07/16 05:06:05;;;;;;;6.50;6.00;;;25.60;63.60;;;;;;4994275;28;20451;-83
2023/07/16 05:08:37;;;;;;;5.77;5.27;;;25.50;62.60;;;;;;5002331;28;20417;-84
2023/07/16 05:11:05;;;;;;;6.60;6.00;;;25.50;62.20;;;;;;4997255;28;20492;-83
2023/07/16 05:13:35;;;;;;;5.13;4.83;;;25.70;62.00;;;;;;5010338;28;20445;-83
2023/07/16 05:16:02;;;;;;;6.57;5.97;;;25.70;61.80;;;;;;4998952;28;20443;-80
2023/07/16 05:18:29;;;;;;;10.93;5.77;;;25.90;61.10;;;;;;4997489;28;20711;-81
2023/07/16 05:21:14;;;;;;;4.97;4.57;;;26.00;60.60;;;;;;4998261;28;20422;-87
2023/07/16 05:23:42;;;;;;;10.07;5.40;;;26.20;60.20;;;;;;4999751;28;20435;-85
2023/07/16 05:26:09;;;;;;;6.80;6.10;;;26.20;59.20;;;;;;5010587;28;20436;-86
2023/07/16 05:28:36;;;;;;;5.73;5.10;;;26.40;59.70;;;;;;4998897;28;20439;-78
2023/07/16 05:31:03;;;;;;;8.80;5.23;;;26.40;59.50;;;;;;5001691;28;20485;-86
2023/07/16 05:33:31;;;;;;;6.00;4.97;;;26.40;58.70;;;;;;5009125;28;20514;-80
2023/07/16 05:35:57;;;;;;;12.80;4.90;;;26.70;57.90;;;;;;5002037;28;20465;-82
2023/07/16 05:38:25;;;;;;;5.67;4.93;;;27.00;57.60;;;;;;4982466;28;20642;-81
2023/07/16 05:40:52;;;;;;;10.43;4.63;;;27.50;56.80;;;;;;4999968;28;20515;-83
2023/07/16 05:43:21;;;;;;;5.77;5.03;;;27.60;55.70;;;;;;4973260;28;20768;-80
2023/07/16 05:45:48;;;;;;;5.93;5.07;;;27.80;54.60;;;;;;4998831;28;20688;-85
2023/07/16 05:48:15;;;;;;;5.80;5.20;;;27.70;54.80;;;;;;4998123;28;20473;-81
2023/07/16 05:50:45;;;;;;;5.03;4.50;;;27.50;55.60;;;;;;4997571;28;20449;-82
2023/07/16 05:53:13;;;;;;;4.63;4.10;;;27.50;55.40;;;;;;4998562;28;20530;-79
2023/07/16 05:55:41;;;;;;;4.53;4.23;;;27.80;56.20;;;;;;4997715;28;20434;-82
2023/07/16 05:58:08;;;;;;;4.70;4.33;;;28.00;54.80;;;;;;4977163;28;20476;-80
2023/07/16 06:00:39;;;;;;;4.70;4.30;;;28.20;53.70;;;;;;4996097;28;20435;-81
2023/07/16 06:03:06;;;;;;;4.50;4.10;;;28.40;53.00;;;;;;4996768;28;20439;-81
2023/07/16 06:05:34;;;;;;;6.17;4.27;;;28.40;53.40;;;;;;4997384;28;20443;-83
2023/07/16 06:08:01;;;;;;;9.50;4.70;;;28.30;53.60;;;;;;5005778;28;20516;-82
2023/07/16 06:10:28;;;;;;;4.57;4.17;;;28.10;52.90;;;;;;4983989;28;20530;-81
2023/07/16 06:12:56;;;;;;;5.47;4.07;;;27.80;53.40;;;;;;4997890;28;20443;-83
2023/07/16 06:15:23;;;;;;;4.10;3.80;;;28.00;53.70;;;;;;4997082;28;20776;-82
2023/07/16 06:17:50;;;;;;;3.80;3.50;;;27.90;53.10;;;;;;4997100;28;20509;-84
2023/07/16 06:20:17;;;;;;;4.80;4.40;;;28.10;53.40;;;;;;4983141;28;20450;-80
2023/07/16 06:22:45;;;;;;;4.17;3.77;;;28.50;52.80;;;;;;4997822;28;20442;-80
2023/07/16 06:25:14;;;;;;;5.30;3.93;;;28.80;52.50;;;;;;5004268;28;20427;-83
2023/07/16 06:27:41;;;;;;;4.40;3.87;;;28.80;52.00;;;;;;5003495;28;20443;-83
2023/07/16 06:30:09;;;;;;;5.37;4.43;;;28.80;52.30;;;;;;4997566;28;20694;-81
2023/07/16 06:32:36;;;;;;;5.90;3.80;;;28.80;51.90;;;;;;5005673;28;20570;-81
2023/07/16 06:35:07;;;;;;;6.13;4.23;;;28.60;52.50;;;;;;4993884;28;20486;-82
2023/07/16 06:37:38;;;;;;;4.53;4.23;;;28.10;53.30;;;;;;4989733;28;20432;-83
2023/07/16 06:40:07;;;;;;;4.37;3.97;;;27.90;53.80;;;;;;4990444;28;20461;-81
2023/07/16 06:42:34;;;;;;;3.90;3.60;;;27.80;53.80;;;;;;4991147;28;20482;-80
2023/07/16 06:45:02;;;;;;;3.37;3.07;;;27.70;53.60;;;;;;4998873;28;20440;-80
2023/07/16 06:47:29;;;;;;;5.43;3.20;;;27.80;53.70;;;;;;5002876;28;20502;-84
2023/07/16 06:49:57;;;;;;;4.50;3.30;;;27.90;52.50;;;;;;5006508;28;20434;-83
2023/07/16 06:52:27;;;;;;;7.53;3.37;;;27.80;52.10;;;;;;5002165;28;20516;-81
2023/07/16 06:54:55;;;;;;;4.43;2.90;;;27.90;53.10;;;;;;5009484;28;20413;-81
2023/07/16 06:57:23;;;;;;;4.50;3.27;;;27.80;53.00;;;;;;5005607;28;20470;-86
2023/07/16 06:59:52;;;;;;;6.93;3.60;;;27.70;52.70;;;;;;5019987;28;20494;-82
2023/07/16 07:02:29;;;;;;;5.83;3.53;;;27.70;53.50;;;;;;4990453;28;20614;-81
2023/07/16 07:04:58;;;;;;;3.87;3.03;;;27.90;53.70;;;;;;5003993;28;20760;-83
2023/07/16 07:07:34;;;;;;;3.00;2.80;;;27.90;53.30;;;;;;4972412;28;20480;-83
2023/07/16 07:10:04;;;;;;;6.63;3.47;;;28.00;53.00;;;;;;5006127;28;20743;-87
2023/07/16 07:12:37;;;;;;;2.93;2.73;;;27.90;53.00;;;;;;4996376;28;20441;-81
2023/07/16 07:15:08;;;;;;;3.00;2.80;;;27.60;53.00;;;;;;5004498;28;20527;-81
2023/07/16 07:17:35;;;;;;;2.63;2.43;;;27.40;53.50;;;;;;5015804;28;20487;-83
2023/07/16 07:20:03;;;;;;;3.63;2.70;;;27.40;53.70;;;;;;5010621;28;20447;-80
2023/07/16 07:22:30;;;;;;;3.10;2.80;;;27.40;53.70;;;;;;5001970;28;20424;-82
2023/07/16 07:24:58;;;;;;;4.40;2.60;;;27.50;53.30;;;;;;5001609;28;20587;-79
2023/07/16 07:27:25;;;;;;;4.20;2.87;;;27.30;53.50;;;;;;5015011;28;20485;-82
2023/07/16 07:29:51;;;;;;;2.67;2.57;;;27.80;53.20;;;;;;4999534;28;20447;-84
2023/07/16 07:32:20;;;;;;;2.90;2.60;;;28.40;51.90;;;;;;5015101;28;20482;-80
2023/07/16 07:34:48;;;;;;;4.00;2.70;;;29.00;51.10;;;;;;5008321;28;20485;-78
2023/07/16 07:37:17;;;;;;;2.60;2.40;;;28.90;50.60;;;;;;5008396;28;20447;-80
2023/07/16 07:39:47;;;;;;;5.83;2.70;;;28.80;50.60;;;;;;5001898;28;20443;-82
2023/07/16 07:42:14;;;;;;;3.43;2.83;;;28.50;52.00;;;;;;5014242;28;20458;-83
2023/07/16 07:44:50;;;;;;;3.20;2.90;;;28.40;52.00;;;;;;5007858;28;20511;-84
2023/07/16 07:47:17;;;;;;;3.50;3.20;;;28.40;52.20;;;;;;5004382;28;20439;-82
2023/07/16 07:49:45;;;;;;;3.00;2.47;;;28.20;52.00;;;;;;5006265;28;20418;-81
2023/07/16 07:52:13;;;;;;;2.83;2.57;;;28.00;52.20;;;;;;5006785;28;20457;-84
2023/07/16 07:54:40;;;;;;;2.90;2.67;;;27.80;52.00;;;;;;5007723;28;20478;-84
2023/07/16 07:57:07;;;;;;;3.60;2.47;;;28.10;52.20;;;;;;5004540;28;20488;-80
2023/07/16 07:59:35;;;;;;;3.37;2.67;;;29.10;50.30;;;;;;4997326;28;20460;-82
2023/07/16 08:02:02;;;;;;;3.63;3.33;;;30.30;48.10;;;;;;5011342;28;20449;-79
2023/07/16 08:04:33;;;;;;;2.90;2.70;;;31.70;45.70;;;;;;4987151;28;20436;-81
2023/07/16 08:07:00;;;;;;;3.90;2.73;;;31.40;44.10;;;;;;5003902;28;20454;-82
2023/07/16 08:09:27;;;;;;;3.93;2.70;;;31.30;44.90;;;;;;4983466;28;20453;-81
2023/07/16 08:11:54;;;;;;;3.93;2.63;;;31.10;45.40;;;;;;4999774;28;20515;-81
2023/07/16 08:14:21;;;;;;;2.60;2.40;;;30.90;45.50;;;;;;4987364;28;20455;-80
2023/07/16 08:16:48;;;;;;;2.80;2.60;;;31.60;44.80;;;;;;5001100;28;20480;-79
2023/07/16 08:19:15;;;;;;;2.97;2.50;;;32.30;43.20;;;;;;5005918;28;20467;-80
2023/07/16 08:21:43;;;;;;;3.87;3.13;;;32.30;42.90;;;;;;5005244;28;20695;-79
2023/07/16 08:24:10;;;;;;;3.40;2.50;;;32.30;42.80;;;;;;4998648;28;20543;-84
2023/07/16 08:26:37;;;;;;;2.47;2.27;;;31.60;43.70;;;;;;5013798;28;20890;-84
2023/07/16 08:29:05;;;;;;;3.30;2.60;;;31.40;44.60;;;;;;5013442;28;20441;-82
2023/07/16 08:31:32;;;;;;;3.03;2.83;;;31.20;45.00;;;;;;5006252;28;20472;-79
2023/07/16 08:33:59;;;;;;;2.20;2.10;;;31.20;44.70;;;;;;5000579;28;20869;-80
2023/07/16 08:36:30;;;;;;;2.40;2.30;;;31.40;44.40;;;;;;4998660;28;20467;-80
2023/07/16 08:38:57;;;;;;;2.83;2.63;;;31.70;44.10;;;;;;4997747;28;20837;-80
2023/07/16 08:41:24;;;;;;;3.57;2.80;;;31.60;44.30;;;;;;4987274;28;20459;-79
2023/07/16 08:43:52;;;;;;;3.33;2.63;;;31.70;44.90;;;;;;4996193;28;20468;-80
2023/07/16 08:46:19;;;;;;;4.03;3.13;;;31.90;43.90;;;;;;4992208;28;20446;-81
2023/07/16 08:48:48;;;;;;;3.03;2.73;;;31.80;44.30;;;;;;4997317;28;20439;-78
2023/07/16 08:51:16;;;;;;;3.20;2.67;;;31.30;45.10;;;;;;4992596;28;20481;-80
2023/07/16 08:53:43;;;;;;;2.80;2.53;;;31.20;45.20;;;;;;4996453;28;20483;-80
2023/07/16 08:56:10;;;;;;;4.97;2.40;;;31.40;45.30;;;;;;4998072;28;20647;-78
2023/07/16 08:58:38;;;;;;;3.57;2.30;;;30.70;47.30;;;;;;5011408;28;20491;-78
2023/07/16 09:01:05;;;;;;;2.80;2.60;;;30.30;46.50;;;;;;5012832;28;20440;-82
2023/07/16 09:03:32;;;;;;;2.83;2.63;;;29.90;47.50;;;;;;4998715;28;20443;-80
2023/07/16 09:05:59;;;;;;;2.80;2.60;;;29.60;48.70;;;;;;4992136;28;20457;-81
2023/07/16 09:08:28;;;;;;;2.87;2.67;;;29.40;49.70;;;;;;5005442;28;20465;-81
2023/07/16 09:10:56;;;;;;;4.27;3.87;;;29.10;50.70;;;;;;4990990;28;20888;-81
2023/07/16 09:13:27;;;;;;;9.07;8.00;;;28.90;52.20;;;;;;4997175;28;20886;-80
2023/07/16 09:15:56;;;;;;;4.20;3.10;;;28.70;52.70;;;;;;4982397;28;20784;-82
2023/07/16 09:18:25;;;;;;;3.43;3.13;;;28.40;55.70;;;;;;4997211;28;20463;-82
2023/07/16 09:21:01;;;;;;;6.70;3.10;;;27.90;58.60;;;;;;4996604;28;20451;-81
2023/07/16 09:23:30;;;;;;;4.80;3.03;;;28.10;64.60;;;;;;5006176;28;20443;-82
2023/07/16 09:25:57;;;;;;;4.30;3.13;;;28.20;56.50;;;;;;5000526;28;20507;-82
2023/07/16 09:28:24;;;;;;;3.00;2.80;;;28.20;57.30;;;;;;4990548;28;20452;-81
2023/07/16 09:30:52;;;;;;;5.23;3.10;;;28.60;52.90;;;;;;5002511;28;20467;-80
2023/07/16 09:33:22;;;;;;;3.80;3.40;;;28.70;54.30;;;;;;4997418;28;20491;-80
2023/07/16 09:35:50;;;;;;;3.23;3.00;;;29.10;54.50;;;;;;5003991;28;20435;-79
2023/07/16 09:38:17;;;;;;;3.90;3.60;;;29.40;54.00;;;;;;4989042;28;20483;-78
2023/07/16 09:40:45;;;;;;;3.63;3.33;;;29.60;52.10;;;;;;5004316;28;20465;-82
2023/07/16 09:43:13;;;;;;;5.90;4.30;;;29.90;53.20;;;;;;4995677;28;20455;-81
2023/07/16 09:45:41;;;;;;;3.93;3.50;;;30.80;51.30;;;;;;4995263;28;20783;-80
2023/07/16 09:48:09;;;;;;;3.93;3.63;;;31.30;49.20;;;;;;4997657;28;20474;-80
2023/07/16 09:50:38;;;;;;;4.40;4.00;;;31.60;48.40;;;;;;4989895;28;20768;-81
2023/07/16 09:53:07;;;;;;;4.10;3.70;;;32.20;47.40;;;;;;5002332;28;20530;-78
2023/07/16 09:55:36;;;;;;;3.20;2.90;;;32.60;45.20;;;;;;4999629;28;20451;-81
2023/07/16 09:58:08;;;;;;;4.17;3.87;;;32.20;44.60;;;;;;4999521;28;20791;-80
2023/07/16 10:00:37;;;;;;;3.50;3.30;;;32.00;46.10;;;;;;5000917;28;20462;-80
2023/07/16 10:03:08;;;;;;;3.40;3.20;;;32.10;46.50;;;;;;4998903;28;20496;-84
2023/07/16 10:05:38;;;;;;;4.13;3.00;;;32.30;45.90;;;;;;4992335;28;20483;-80
2023/07/16 10:08:16;;;;;;;3.70;3.40;;;32.00;46.70;;;;;;5004351;28;20467;-81
2023/07/16 10:10:48;;;;;;;3.37;2.90;;;31.60;46.70;;;;;;4997513;28;20574;-80
2023/07/16 10:13:16;;;;;;;3.23;3.03;;;31.50;46.60;;;;;;4993934;28;20483;-80
2023/07/16 10:16:19;;;;;;;3.60;3.40;;;31.10;46.90;;;;;;4993345;28;20452;-81
2023/07/16 10:18:53;;;;;;;3.90;3.60;;;31.00;48.20;;;;;;4975549;28;20447;-81
2023/07/16 10:21:25;;;;;;;3.93;3.10;;;30.60;49.50;;;;;;4993837;28;21093;-80
2023/07/16 10:23:59;;;;;;;5.17;3.70;;;30.40;49.30;;;;;;4993931;28;20917;-80
2023/07/16 10:26:31;;;;;;;3.80;3.40;;;30.40;50.20;;;;;;4995747;28;20446;-81
2023/07/16 10:28:59;;;;;;;5.57;4.60;;;30.10;51.30;;;;;;5001188;28;20461;-81
2023/07/16 10:31:35;;;;;;;4.03;3.57;;;30.00;51.50;;;;;;5002657;28;20451;-84
2023/07/16 10:34:04;;;;;;;5.90;3.17;;;29.60;52.00;;;;;;5002407;28;20446;-80
2023/07/16 10:36:39;;;;;;;4.07;3.77;;;29.30;53.20;;;;;;4997395;28;20764;-79
2023/07/16 10:39:06;;;;;;;5.00;3.23;;;29.10;54.00;;;;;;4999169;28;20517;-82
2023/07/16 10:41:36;;;;;;;3.50;3.20;;;28.60;55.30;;;;;;5005532;28;20451;-82
2023/07/16 10:44:03;;;;;;;3.10;2.90;;;28.10;56.90;;;;;;5009396;28;20421;-80
2023/07/16 10:46:32;;;;;;;5.77;3.40;;;27.50;58.10;;;;;;5011706;28;20430;-77
2023/07/16 10:48:59;;;;;;;3.80;3.50;;;27.00;58.60;;;;;;5004531;28;20877;-85
2023/07/16 10:51:26;;;;;;;2.90;2.70;;;27.10;59.00;;;;;;5006734;28;20443;-83
2023/07/16 10:53:56;;;;;;;3.40;3.20;;;27.00;58.90;;;;;;5012147;28;20459;-78
2023/07/16 10:56:25;;;;;;;3.00;2.80;;;26.80;59.40;;;;;;5008683;28;20455;-79
2023/07/16 10:58:53;;;;;;;3.57;2.97;;;26.70;59.90;;;;;;5002424;28;20443;-78
2023/07/16 11:01:21;;;;;;;5.40;3.20;;;26.50;59.60;;;;;;4994430;28;20471;-80
2023/07/16 11:03:47;;;;;;;3.07;2.57;;;26.50;59.80;;;;;;5004966;28;20445;-82
2023/07/16 11:06:16;;;;;;;2.97;2.77;;;26.40;59.70;;;;;;5000292;28;20638;-80
2023/07/16 11:08:44;;;;;;;4.17;3.77;;;26.20;60.20;;;;;;5002145;28;20515;-84
2023/07/16 11:11:11;;;;;;;3.97;3.53;;;26.20;61.00;;;;;;5005107;28;20527;-82
2023/07/16 11:13:39;;;;;;;3.90;3.60;;;26.20;60.90;;;;;;5004694;28;20515;-82
2023/07/16 11:16:08;;;;;;;6.13;3.90;;;26.20;61.00;;;;;;4985168;28;20444;-83
2023/07/16 11:18:35;;;;;;;6.27;4.03;;;26.20;60.60;;;;;;5011387;28;20439;-87
2023/07/16 11:21:03;;;;;;;4.30;3.90;;;26.30;61.00;;;;;;5015539;28;20409;-82
2023/07/16 11:23:34;;;;;;;3.50;3.20;;;26.30;60.80;;;;;;5012889;28;20438;-81
2023/07/16 11:26:03;;;;;;;3.93;3.63;;;26.20;60.40;;;;;;5011373;28;20474;-83
2023/07/16 11:28:38;;;;;;;5.40;3.70;;;26.20;61.00;;;;;;5002242;28;20494;-78
2023/07/16 11:31:16;;;;;;;3.00;2.80;;;26.40;60.50;;;;;;5007086;28;20717;-79
2023/07/16 11:33:44;;;;;;;4.03;2.93;;;26.70;60.00;;;;;;5001167;28;21052;-83
2023/07/16 11:36:12;;;;;;;3.30;3.10;;;26.60;59.50;;;;;;5002582;28;20417;-80
2023/07/16 11:38:39;;;;;;;3.23;3.03;;;26.70;58.40;;;;;;4983031;28;20430;-79
2023/07/16 11:41:06;;;;;;;5.33;3.07;;;27.00;57.50;;;;;;5001109;28;20792;-80
2023/07/16 11:43:35;;;;;;;2.70;2.50;;;26.90;56.70;;;;;;5004806;28;20930;-81
2023/07/16 11:46:13;;;;;;;3.33;2.93;;;27.00;56.80;;;;;;5001969;28;20485;-82
2023/07/16 11:48:42;;;;;;;5.33;3.27;;;27.00;56.80;;;;;;4999405;28;20447;-83
2023/07/16 11:51:09;;;;;;;4.70;2.07;;;26.90;56.60;;;;;;5007858;28;20493;-82
2023/07/16 11:53:35;;;;;;;2.60;2.50;;;26.90;56.20;;;;;;4999690;28;20563;-82
2023/07/16 11:56:05;;;;;;;3.10;2.30;;;26.80;56.70;;;;;;5000523;28;20433;-80
2023/07/16 11:58:33;;;;;;;2.53;2.37;;;26.50;56.30;;;;;;5001449;28;20863;-81
2023/07/16 12:01:02;;;;;;;2.60;2.40;;;27.00;55.70;;;;;;5007601;28;20526;-85
2023/07/16 12:03:29;;;;;;;2.83;2.53;;;26.70;56.20;;;;;;5007267;28;20439;-81
2023/07/16 12:05:56;;;;;;;3.27;2.97;;;27.00;56.10;;;;;;5006814;28;20415;-81
2023/07/16 12:08:26;;;;;;;2.57;2.43;;;27.20;55.50;;;;;;5008037;28;20418;-84
2023/07/16 12:10:53;;;;;;;3.40;3.10;;;27.30;55.70;;;;;;4997280;28;20759;-85
2023/07/16 12:13:20;;;;;;;2.50;2.40;;;27.70;54.50;;;;;;4998730;28;20510;-86
2023/07/16 12:15:47;;;;;;;2.70;2.50;;;27.60;54.70;;;;;;4999029;28;20516;-78
2023/07/16 12:18:16;;;;;;;3.30;3.00;;;27.80;54.10;;;;;;4997910;28;20663;-81
2023/07/16 12:20:44;;;;;;;2.93;2.60;;;27.80;54.40;;;;;;5003100;28;20458;-82
2023/07/16 12:23:11;;;;;;;3.50;2.97;;;27.80;54.30;;;;;;4998597;28;20444;-80
2023/07/16 12:25:38;;;;;;;3.80;2.90;;;28.10;53.70;;;;;;5001827;28;21021;-81
2023/07/16 12:28:05;;;;;;;2.80;2.60;;;28.20;53.20;;;;;;5007941;28;20709;-82
2023/07/16 12:30:34;;;;;;;3.47;3.10;;;28.30;53.00;;;;;;5006957;28;20474;-80
2023/07/16 12:33:03;;;;;;;3.07;2.87;;;28.50;53.30;;;;;;5013685;28;21086;-80
2023/07/16 12:35:31;;;;;;;6.03;3.07;;;28.40;53.10;;;;;;5002753;28;20725;-79
2023/07/16 12:37:59;;;;;;;4.90;3.27;;;28.40;53.40;;;;;;4990741;28;20451;-79
2023/07/16 12:40:29;;;;;;;2.77;2.57;;;28.50;53.20;;;;;;4999553;28;20510;-80
2023/07/16 12:42:56;;;;;;;2.80;2.60;;;28.30;53.40;;;;;;5000683;28;20438;-80
2023/07/16 12:45:23;;;;;;;3.10;2.80;;;28.30;53.80;;;;;;5002184;28;20446;-81
2023/07/16 12:47:50;;;;;;;3.03;2.83;;;28.30;53.90;;;;;;5000620;28;20523;-82
2023/07/16 12:50:17;;;;;;;2.97;2.67;;;28.40;53.90;;;;;;5003596;28;20452;-82
2023/07/16 12:52:44;;;;;;;3.20;3.00;;;28.10;54.20;;;;;;5003369;28;20580;-83
2023/07/16 12:55:12;;;;;;;3.00;2.80;;;28.10;55.50;;;;;;4999989;28;20490;-83
2023/07/16 12:57:39;;;;;;;3.53;3.20;;;28.10;54.50;;;;;;4978420;28;20449;-77
2023/07/16 13:00:09;;;;;;;3.20;2.97;;;27.90;54.80;;;;;;4993377;28;20450;-79
2023/07/16 13:02:37;;;;;;;3.70;3.40;;;28.00;55.20;;;;;;5001748;28;20448;-83
2023/07/16 13:05:04;;;;;;;3.20;2.90;;;28.20;55.30;;;;;;5001248;28;20550;-80
2023/07/16 13:07:34;;;;;;;3.80;2.90;;;28.20;54.90;;;;;;4999711;28;20485;-80
2023/07/16 13:10:01;;;;;;;6.03;4.13;;;28.10;55.30;;;;;;5000848;28;20455;-81
2023/07/16 13:12:44;;;;;;;6.70;3.47;;;28.10;55.20;;;;;;4982283;28;20491;-81